Sherman, South Dakota
Current Conditions -  °F | °C
As of 12:56 PM on Sunday 23 Nov 2014 (Local Time) from KFSD Reporting Station
Overcast Overcast  
Wind Chill: 33°   Ceiling: 10000
Heat Index: 41°   Visibility: 10mi
Dew Point: 35°   Wind: 16mph
Humidity: 79%   Direction: 320°NW
Pressure: 29.52"   Gusts: NA
Location:  43.7606°N, 96.5516°W
Report Text: KFSD 231856Z 32014KT 10SM OVC100 05/02 A2952 RMK AO2 SLP004 T00500017
Loading
Personal Weather Stations






























Interactive Weather Map New forecast layout! Learn more

10-Day Weather Forecast

Advertisements
Track Severe Weather on mobile